createdAt,value
2018-06-10T05:22:26.525Z,938.90
2018-06-10T05:23:33.981Z,938.91
2018-06-10T05:24:42.160Z,938.87
2018-06-10T05:25:50.775Z,938.90
2018-06-10T05:26:58.229Z,938.90
2018-06-10T05:28:06.249Z,938.84
2018-06-10T05:29:14.323Z,938.89
2018-06-10T05:30:22.407Z,938.87
2018-06-10T05:31:30.475Z,938.89
2018-06-10T05:32:38.638Z,938.92
2018-06-10T05:33:46.596Z,938.97
2018-06-10T05:34:54.660Z,938.96
2018-06-10T05:36:02.738Z,938.95
2018-06-10T05:37:10.857Z,938.97
2018-06-10T05:38:18.867Z,939.00
2018-06-10T05:39:26.933Z,939.06
2018-06-10T05:40:34.999Z,938.98
2018-06-10T05:41:43.118Z,938.97
2018-06-10T05:42:51.171Z,938.97
2018-06-10T05:43:59.227Z,938.99
2018-06-10T05:45:07.317Z,939.00
2018-06-10T05:46:15.338Z,939.01
2018-06-10T05:47:23.491Z,939.02
2018-06-10T05:48:31.624Z,939.10
2018-06-10T05:49:39.579Z,939.10
2018-06-10T05:50:47.638Z,939.13
2018-06-10T05:51:55.824Z,939.12
2018-06-10T05:53:03.774Z,939.12
2018-06-10T05:54:11.844Z,939.14
2018-06-10T05:55:19.931Z,939.17
2018-06-10T05:56:27.981Z,939.20
2018-06-10T05:57:36.105Z,939.15
2018-06-10T05:58:44.120Z,939.18
2018-06-10T05:59:52.190Z,939.19
2018-06-10T06:01:00.271Z,939.21
2018-06-10T06:02:08.385Z,939.24
2018-06-10T06:03:16.511Z,939.19
2018-06-10T06:04:24.913Z,939.18
2018-06-10T06:05:32.542Z,939.23
2018-06-10T06:06:40.621Z,939.23
2018-06-10T06:07:48.788Z,939.24
2018-06-10T06:08:56.793Z,939.25
2018-06-10T06:10:04.781Z,939.31
2018-06-10T06:11:13.515Z,939.29
2018-06-10T06:12:20.950Z,939.33
2018-06-10T06:13:29.765Z,939.30
2018-06-10T06:14:37.660Z,939.35
2018-06-10T06:15:45.561Z,939.35
2018-06-10T06:16:53.797Z,939.31
2018-06-10T06:18:01.710Z,939.28
2018-06-10T06:19:09.369Z,939.26
2018-06-10T06:20:18.410Z,939.23
2018-06-10T06:21:26.089Z,939.28
2018-06-10T06:22:33.594Z,939.35
2018-06-10T06:23:41.733Z,939.40
2018-06-10T06:24:49.898Z,939.43
2018-06-10T06:25:57.855Z,939.46
2018-06-10T06:27:06.144Z,939.35
2018-06-10T06:28:13.943Z,939.31
2018-06-10T06:29:22.842Z,939.36
2018-06-10T06:30:30.425Z,939.46
2018-06-10T06:31:38.294Z,939.37
2018-06-10T06:32:46.447Z,939.38
2018-06-10T06:33:54.304Z,939.36
2018-06-10T06:35:02.424Z,939.31
2018-06-10T06:36:10.972Z,939.34
2018-06-10T06:37:18.496Z,939.38
2018-06-10T06:38:26.767Z,939.35
2018-06-10T06:39:35.204Z,939.36
2018-06-10T06:40:43.055Z,939.39
2018-06-10T06:41:50.793Z,939.41
2018-06-10T06:42:59.426Z,939.41
2018-06-10T06:44:07.519Z,939.40
2018-06-10T06:45:15.141Z,939.39
2018-06-10T06:46:23.073Z,939.43
2018-06-10T06:47:31.731Z,939.44
2018-06-10T06:48:39.209Z,939.43
2018-06-10T06:49:47.825Z,939.48
2018-06-10T06:50:56.413Z,939.57
2018-06-10T06:52:03.532Z,939.68
2018-06-10T06:53:11.542Z,939.55
2018-06-10T06:54:20.111Z,939.55
2018-06-10T06:55:28.088Z,939.75
2018-06-10T06:56:35.692Z,939.75
2018-06-10T06:57:43.771Z,939.69
2018-06-10T06:58:51.841Z,939.72
2018-06-10T06:59:59.909Z,939.79
2018-06-10T07:01:08.039Z,939.73
2018-06-10T07:02:16.061Z,939.81
2018-06-10T07:03:24.141Z,939.84
2018-06-10T07:04:32.367Z,939.71
2018-06-10T07:05:40.266Z,939.78
2018-06-10T07:06:51.587Z,939.69
2018-06-10T07:07:56.476Z,939.91
2018-06-10T07:09:04.770Z,940.10
2018-06-10T07:10:12.777Z,940.00
2018-06-10T07:11:21.137Z,940.02
2018-06-10T07:12:28.835Z,940.03
2018-06-10T07:13:36.781Z,939.64
2018-06-10T07:14:44.818Z,940.07
2018-06-10T07:15:53.139Z,940.11
2018-06-10T07:17:01.517Z,939.90
2018-06-10T07:18:09.209Z,939.81
2018-06-10T07:19:17.141Z,940.00
2018-06-10T07:20:25.418Z,939.98
2018-06-10T07:21:33.608Z,939.82
2018-06-10T07:22:41.481Z,940.07
2018-06-10T07:23:49.721Z,940.08
2018-06-10T07:24:57.774Z,940.03
2018-06-10T07:26:05.922Z,940.41
2018-06-10T07:27:13.937Z,940.51
2018-06-10T07:28:21.728Z,940.64
2018-06-10T07:29:29.888Z,940.75
2018-06-10T07:30:37.892Z,940.80
2018-06-10T07:31:45.943Z,940.96
2018-06-10T07:32:56.165Z,940.77
2018-06-10T07:34:02.414Z,940.78
2018-06-10T07:35:10.187Z,940.97
2018-06-10T07:36:18.531Z,941.07
2018-06-10T07:37:26.885Z,941.14
2018-06-10T07:38:34.509Z,941.07
2018-06-10T07:39:45.157Z,941.31
2018-06-10T07:40:53.921Z,941.25
2018-06-10T07:42:01.052Z,941.19
2018-06-10T07:43:09.632Z,941.25
2018-06-10T07:44:17.210Z,941.21
2018-06-10T07:45:25.265Z,941.26
2018-06-10T07:46:33.629Z,941.36
2018-06-10T07:47:42.027Z,941.56
2018-06-10T07:48:49.559Z,941.69
2018-06-10T07:49:57.635Z,941.70
2018-06-10T07:51:06.348Z,941.77
2018-06-10T07:52:14.139Z,942.00
2018-06-10T07:53:22.489Z,942.01
2018-06-10T07:54:30.308Z,941.91
2018-06-10T07:55:38.603Z,942.20
2018-06-10T07:56:46.107Z,942.49
2018-06-10T07:57:54.746Z,942.73
2018-06-10T07:59:02.280Z,942.95
2018-06-10T08:00:11.054Z,943.04
2018-06-10T08:01:18.810Z,943.13
2018-06-10T08:02:26.518Z,943.65
2018-06-10T08:03:35.235Z,943.79
2018-06-10T08:04:42.940Z,944.16
2018-06-10T08:05:51.053Z,942.80
2018-06-10T08:06:59.064Z,944.40
2018-06-10T08:08:07.129Z,944.49
2018-06-10T08:09:21.766Z,944.58
2018-06-10T08:10:23.463Z,942.84
2018-06-10T08:11:31.384Z,943.02
2018-06-10T08:12:39.324Z,944.23
2018-06-10T08:13:47.356Z,942.87
2018-06-10T08:14:55.558Z,943.08
2018-06-10T08:16:03.525Z,944.02
2018-06-10T08:17:11.604Z,944.49
2018-06-10T08:18:19.690Z,944.59
2018-06-10T08:19:27.820Z,944.86
2018-06-10T08:20:35.852Z,944.71
2018-06-10T08:21:43.937Z,944.78
2018-06-10T08:22:52.018Z,945.00
2018-06-10T08:24:00.130Z,945.24
2018-06-10T08:25:08.224Z,945.34
2018-06-10T08:26:16.266Z,945.17
2018-06-10T08:27:24.450Z,945.35
2018-06-10T08:28:32.738Z,945.25
2018-06-10T08:29:40.636Z,945.17
2018-06-10T08:30:50.541Z,945.47
2018-06-10T08:31:56.725Z,945.48
2018-06-10T08:33:04.776Z,945.15
2018-06-10T08:34:12.869Z,945.31
2018-06-10T08:35:21.512Z,942.88
2018-06-10T08:36:29.097Z,941.65
2018-06-10T08:37:37.552Z,941.70
2018-06-10T08:38:45.428Z,940.95
2018-06-10T08:39:53.419Z,940.09
2018-06-10T08:41:01.449Z,944.22
2018-06-10T08:42:09.823Z,944.28
2018-06-10T08:43:17.639Z,944.67
2018-06-10T08:44:25.613Z,944.67
2018-06-10T08:45:33.713Z,940.27
2018-06-10T08:46:42.506Z,945.23
2018-06-10T08:47:50.154Z,944.68
2018-06-10T08:48:58.076Z,944.46
2018-06-10T08:50:06.051Z,944.51
2018-06-10T08:51:14.129Z,944.10
2018-06-10T08:52:22.376Z,943.95
2018-06-10T08:53:30.282Z,943.76
2018-06-10T08:54:38.356Z,943.82
2018-06-10T08:55:46.930Z,943.89
2018-06-10T08:56:55.321Z,943.91
2018-06-10T08:58:02.617Z,943.93
2018-06-10T08:59:10.933Z,943.35
2018-06-10T09:00:18.793Z,943.16
2018-06-10T09:01:26.858Z,943.19
2018-06-10T09:02:34.979Z,943.21
2018-06-10T09:03:43.036Z,943.16
2018-06-10T09:04:51.104Z,943.00
2018-06-10T09:05:59.197Z,943.02
2018-06-10T09:07:07.385Z,942.95
2018-06-10T09:08:15.352Z,942.96
2018-06-10T09:09:23.465Z,942.81
2018-06-10T09:10:31.534Z,942.84
2018-06-10T09:11:39.624Z,942.82
2018-06-10T09:12:47.822Z,942.83
2018-06-10T09:13:55.803Z,943.10
2018-06-10T09:15:03.937Z,943.25
2018-06-10T09:16:11.976Z,943.14
2018-06-10T09:17:20.036Z,943.12
2018-06-10T09:18:28.242Z,943.12
2018-06-10T09:19:36.212Z,941.86
2018-06-10T09:20:44.296Z,940.17
2018-06-10T09:21:52.383Z,941.90
2018-06-10T09:23:00.467Z,942.68
2018-06-10T09:24:08.602Z,942.61
2018-06-10T09:25:16.638Z,942.12
2018-06-10T09:26:24.711Z,940.83
2018-06-10T09:27:32.816Z,939.70
2018-06-10T09:28:40.888Z,939.69
2018-06-10T09:29:49.090Z,939.67
2018-06-10T09:30:57.168Z,939.68
2018-06-10T09:32:05.116Z,939.72
2018-06-10T09:33:13.224Z,939.67
2018-06-10T09:34:21.313Z,939.68
2018-06-10T09:35:29.473Z,939.66
2018-06-10T09:36:37.482Z,939.63
2018-06-10T09:37:45.538Z,939.66
2018-06-10T09:38:53.636Z,939.61
2018-06-10T09:40:01.715Z,939.54
2018-06-10T09:41:09.863Z,939.55
2018-06-10T09:42:17.869Z,939.52
2018-06-10T09:43:25.938Z,939.48
2018-06-10T09:44:34.031Z,939.48
2018-06-10T09:45:42.149Z,939.57
2018-06-10T09:46:50.284Z,939.59
2018-06-10T09:47:58.248Z,939.62
2018-06-10T09:49:06.326Z,939.47
2018-06-10T09:50:14.412Z,939.41
2018-06-10T09:51:22.528Z,939.40
2018-06-10T09:52:30.558Z,939.42
2018-06-10T09:53:38.631Z,939.41
2018-06-10T09:54:46.719Z,939.38
2018-06-10T09:55:54.832Z,939.42
2018-06-10T09:57:02.871Z,939.45
2018-06-10T09:58:10.942Z,939.51
2018-06-10T09:59:19.025Z,939.55
2018-06-10T10:00:27.099Z,939.58
2018-06-10T10:01:35.205Z,939.54
2018-06-10T10:02:43.307Z,939.51
2018-06-10T10:03:51.329Z,939.59
2018-06-10T10:04:59.394Z,939.56
2018-06-10T10:06:07.482Z,939.55
2018-06-10T10:07:15.604Z,939.50
2018-06-10T10:08:23.621Z,939.57
2018-06-10T10:09:31.708Z,939.66
2018-06-10T10:10:39.768Z,939.62
2018-06-10T10:11:47.928Z,939.60
2018-06-10T10:12:55.932Z,939.61
2018-06-10T10:14:04.018Z,939.60
2018-06-10T10:15:12.093Z,939.54
2018-06-10T10:16:20.153Z,939.58
2018-06-10T10:17:28.283Z,939.61
2018-06-10T10:18:36.301Z,939.59
2018-06-10T10:19:44.380Z,939.63
2018-06-10T10:20:52.455Z,939.58
2018-06-10T10:22:00.538Z,939.44
2018-06-10T10:23:08.600Z,939.46
2018-06-10T10:24:16.692Z,939.56
2018-06-10T10:25:24.744Z,939.49
2018-06-10T10:26:32.829Z,939.39
2018-06-10T10:27:40.951Z,939.36
2018-06-10T10:28:48.985Z,939.33
2018-06-10T10:29:57.050Z,939.28
2018-06-10T10:31:05.109Z,939.30
2018-06-10T10:32:13.319Z,939.27
2018-06-10T10:33:21.277Z,939.22
2018-06-10T10:34:29.347Z,939.20
2018-06-10T10:35:37.431Z,939.15
2018-06-10T10:36:45.595Z,939.13
2018-06-10T10:37:53.621Z,939.11
2018-06-10T10:39:01.656Z,939.17
2018-06-10T10:40:09.735Z,939.28
2018-06-10T10:41:17.813Z,939.23
2018-06-10T10:42:25.926Z,939.23
2018-06-10T10:43:34.011Z,939.15
2018-06-10T10:44:42.033Z,939.13
2018-06-10T10:45:50.110Z,939.23
2018-06-10T10:46:58.185Z,939.16
2018-06-10T10:48:06.311Z,939.25
2018-06-10T10:49:14.342Z,939.23
2018-06-10T10:50:22.405Z,939.05
2018-06-10T10:51:30.480Z,939.08
2018-06-10T10:52:38.558Z,939.19
2018-06-10T10:53:46.766Z,939.19
2018-06-10T10:54:54.701Z,939.18
2018-06-10T10:56:02.820Z,939.22
2018-06-10T10:57:10.898Z,939.09
2018-06-10T10:58:18.969Z,939.10
2018-06-10T10:59:27.025Z,939.15
2018-06-10T11:00:35.067Z,939.10
2018-06-10T11:01:43.201Z,939.10
2018-06-10T11:02:51.275Z,939.08
2018-06-10T11:03:59.383Z,939.05
2018-06-10T11:05:07.398Z,939.11
2018-06-10T11:06:15.467Z,939.13
2018-06-10T11:07:23.571Z,939.11
2018-06-10T11:08:31.661Z,939.09
2018-06-10T11:09:39.680Z,939.10
2018-06-10T11:10:47.764Z,939.10
2018-06-10T11:11:55.828Z,939.09
2018-06-10T11:13:03.915Z,939.02
2018-06-10T11:14:12.033Z,939.02
2018-06-10T11:15:20.075Z,938.99
2018-06-10T11:16:28.139Z,939.02
2018-06-10T11:17:36.276Z,939.07
2018-06-10T11:18:44.304Z,939.13
2018-06-10T11:19:52.417Z,939.19
2018-06-10T11:21:00.444Z,939.21
2018-06-10T11:22:08.526Z,939.24
2018-06-10T11:23:16.610Z,939.27
2018-06-10T11:24:24.762Z,939.23
2018-06-10T11:25:32.746Z,939.26
2018-06-10T11:26:40.829Z,939.19
2018-06-10T11:27:48.914Z,939.10
2018-06-10T11:28:56.980Z,939.00
2018-06-10T11:30:05.139Z,939.07
2018-06-10T11:31:13.146Z,939.09
2018-06-10T11:32:21.319Z,939.07
2018-06-10T11:33:29.278Z,939.07
2018-06-10T11:34:37.364Z,939.17
2018-06-10T11:35:45.540Z,939.15
2018-06-10T11:36:53.524Z,939.15
2018-06-10T11:38:01.597Z,939.03
2018-06-10T11:39:09.675Z,939.00
2018-06-10T11:40:17.743Z,938.98
2018-06-10T11:41:25.864Z,938.98
2018-06-10T11:42:33.958Z,939.01
2018-06-10T11:43:41.977Z,938.99
2018-06-10T11:44:50.055Z,938.97
2018-06-10T11:45:58.131Z,938.93
2018-06-10T11:47:06.209Z,938.96
2018-06-10T11:48:14.381Z,938.93
2018-06-10T11:49:22.398Z,938.92
2018-06-10T11:50:30.645Z,938.95
2018-06-10T11:51:38.633Z,938.97
2018-06-10T11:52:46.608Z,938.99
2018-06-10T11:53:54.644Z,939.03
2018-06-10T11:55:02.760Z,939.00
2018-06-10T11:56:10.824Z,938.89
2018-06-10T11:57:18.945Z,938.93
2018-06-10T11:58:26.978Z,938.88
2018-06-10T11:59:35.035Z,938.93
2018-06-10T12:00:43.133Z,939.00
2018-06-10T12:01:51.227Z,939.09
2018-06-10T12:02:59.322Z,939.11
2018-06-10T12:04:07.475Z,939.12
2018-06-10T12:05:15.455Z,939.15
2018-06-10T12:06:23.511Z,939.16
2018-06-10T12:07:31.667Z,939.09
2018-06-10T12:08:39.640Z,939.09
2018-06-10T12:09:47.724Z,938.88
2018-06-10T12:10:56.436Z,938.60
2018-06-10T12:12:03.854Z,937.92
2018-06-10T12:13:12.249Z,937.88
2018-06-10T12:14:20.376Z,938.21
2018-06-10T12:15:28.456Z,938.36
2018-06-10T12:16:36.176Z,938.41
2018-06-10T12:17:44.794Z,938.33
2018-06-10T12:18:52.300Z,938.20
2018-06-10T12:20:00.525Z,938.30
2018-06-10T12:21:08.569Z,938.32
2018-06-10T12:22:16.528Z,938.18
2018-06-10T12:23:24.638Z,938.34
2018-06-10T12:24:32.661Z,938.51
2018-06-10T12:25:40.708Z,938.73
2018-06-10T12:26:48.870Z,938.77
2018-06-10T12:27:56.867Z,938.78
2018-06-10T12:29:04.918Z,938.81
2018-06-10T12:30:13.007Z,938.84
2018-06-10T12:31:21.076Z,938.94
2018-06-10T12:32:30.976Z,939.02
2018-06-10T12:33:37.264Z,939.02
2018-06-10T12:34:46.206Z,939.00
2018-06-10T12:35:53.601Z,938.99
2018-06-10T12:37:01.479Z,939.10
2018-06-10T12:38:09.485Z,939.05
2018-06-10T12:39:17.605Z,939.17
2018-06-10T12:40:25.617Z,939.11
2018-06-10T12:41:33.697Z,939.12
2018-06-10T12:42:41.762Z,939.15
2018-06-10T12:43:50.431Z,939.15
2018-06-10T12:44:58.034Z,939.18
2018-06-10T12:46:05.974Z,939.18
2018-06-10T12:47:16.105Z,939.25
2018-06-10T12:48:22.761Z,939.25
2018-06-10T12:49:30.518Z,939.29
2018-06-10T12:50:38.624Z,939.55
2018-06-10T12:51:46.415Z,939.63
2018-06-10T12:52:54.376Z,939.62
2018-06-10T12:54:02.464Z,939.65
2018-06-10T12:55:10.567Z,939.73
2018-06-10T12:56:18.600Z,939.75
2018-06-10T12:57:26.681Z,939.74
2018-06-10T12:58:34.729Z,939.78
2018-06-10T12:59:42.864Z,939.88
2018-06-10T13:00:50.897Z,939.66
2018-06-10T13:01:58.965Z,939.63
2018-06-10T13:03:07.031Z,939.71
2018-06-10T13:04:15.156Z,939.77
2018-06-10T13:05:23.306Z,939.63
2018-06-10T13:06:31.273Z,939.66
2018-06-10T13:07:39.497Z,939.57
2018-06-10T13:08:47.403Z,939.50
2018-06-10T13:09:55.443Z,939.34
2018-06-10T13:11:03.646Z,939.20
2018-06-10T13:12:11.625Z,939.19
2018-06-10T13:13:19.681Z,939.17
2018-06-10T13:14:27.749Z,939.11
2018-06-10T13:15:35.837Z,939.10
2018-06-10T13:16:43.952Z,939.01
2018-06-10T13:17:51.982Z,938.97
2018-06-10T13:19:00.045Z,938.94
2018-06-10T13:20:08.415Z,938.97
2018-06-10T13:21:16.172Z,939.04
2018-06-10T13:22:24.299Z,939.06
2018-06-10T13:23:32.358Z,939.08
2018-06-10T13:24:40.381Z,939.13
2018-06-10T13:25:48.467Z,939.14
2018-06-10T13:26:56.515Z,939.14
2018-06-10T13:28:04.706Z,939.18
2018-06-10T13:29:12.673Z,939.15
2018-06-10T13:30:20.753Z,939.14
2018-06-10T13:31:28.813Z,939.06
2018-06-10T13:32:36.893Z,939.10
2018-06-10T13:33:44.987Z,939.23
2018-06-10T13:34:53.032Z,939.28
2018-06-10T13:36:01.114Z,939.24
2018-06-10T13:37:09.169Z,939.21
2018-06-10T13:38:17.233Z,939.11
2018-06-10T13:39:25.416Z,939.09
2018-06-10T13:40:33.432Z,939.13
2018-06-10T13:41:41.467Z,939.20
2018-06-10T13:42:49.528Z,939.40
2018-06-10T13:43:57.591Z,939.63
2018-06-10T13:45:05.706Z,939.75
2018-06-10T13:46:13.819Z,939.82
2018-06-10T13:47:21.808Z,939.72
2018-06-10T13:48:29.883Z,939.67
2018-06-10T13:49:37.966Z,939.59
2018-06-10T13:50:46.137Z,939.15
2018-06-10T13:51:54.106Z,938.84
2018-06-10T13:53:02.185Z,938.76
2018-06-10T13:54:10.232Z,938.64
2018-06-10T13:55:18.358Z,938.63
2018-06-10T13:56:26.498Z,938.67
2018-06-10T13:57:34.449Z,938.65
2018-06-10T13:58:42.529Z,938.64
2018-06-10T13:59:50.609Z,938.68
2018-06-10T14:00:58.663Z,938.72
2018-06-10T14:02:06.806Z,938.72
2018-06-10T14:03:14.794Z,938.78
2018-06-10T14:04:22.873Z,938.78
2018-06-10T14:05:30.964Z,938.82
2018-06-10T14:06:39.075Z,938.81
2018-06-10T14:07:47.153Z,938.87
2018-06-10T14:08:55.142Z,938.88
2018-06-10T14:10:03.237Z,938.88
2018-06-10T14:11:11.427Z,938.83
2018-06-10T14:12:19.434Z,938.83
2018-06-10T14:13:27.461Z,938.80
2018-06-10T14:14:35.526Z,938.67
2018-06-10T14:15:43.615Z,938.61
2018-06-10T14:16:51.683Z,938.62
2018-06-10T14:17:59.858Z,938.56
2018-06-10T14:19:07.808Z,938.51
2018-06-10T14:20:15.910Z,938.53
2018-06-10T14:21:23.962Z,938.49
2018-06-10T14:22:32.030Z,938.52
2018-06-10T14:23:40.350Z,938.49
2018-06-10T14:24:48.163Z,938.55
2018-06-10T14:25:56.248Z,938.56
2018-06-10T14:27:04.548Z,938.61
2018-06-10T14:28:12.411Z,938.64
2018-06-10T14:29:20.508Z,938.68
2018-06-10T14:30:28.545Z,938.75
2018-06-10T14:31:36.608Z,938.77
2018-06-10T14:32:44.692Z,938.76
2018-06-10T14:33:52.752Z,938.81
2018-06-10T14:35:00.929Z,938.80
2018-06-10T14:36:08.895Z,938.89
2018-06-10T14:37:16.951Z,938.90
2018-06-10T14:38:25.006Z,938.86
2018-06-10T14:39:33.102Z,938.89
2018-06-10T14:40:41.282Z,938.83
2018-06-10T14:41:49.235Z,938.83
2018-06-10T14:42:57.421Z,938.80
2018-06-10T14:44:05.385Z,938.80
2018-06-10T14:45:13.469Z,938.75
2018-06-10T14:46:21.646Z,938.72
2018-06-10T14:47:29.616Z,938.70
2018-06-10T14:48:37.674Z,938.65
2018-06-10T14:49:45.759Z,938.69
2018-06-10T14:50:53.822Z,938.69
2018-06-10T14:52:01.964Z,938.71
2018-06-10T14:53:09.986Z,938.73
2018-06-10T14:55:35.189Z,938.74
2018-06-10T14:56:43.282Z,938.69
2018-06-10T14:57:51.388Z,938.72
2018-06-10T14:58:59.407Z,938.74
2018-06-10T15:00:07.485Z,938.79
2018-06-10T15:01:15.566Z,938.77
2018-06-10T15:02:23.689Z,938.75
2018-06-10T15:03:31.722Z,938.63
2018-06-10T15:04:39.783Z,938.67
2018-06-10T15:05:47.849Z,938.64
2018-06-10T15:06:55.929Z,938.57
2018-06-10T15:08:04.106Z,938.58
2018-06-10T15:09:12.074Z,938.56
2018-06-10T15:10:20.139Z,938.53
2018-06-10T15:11:28.220Z,938.48
2018-06-10T15:12:36.446Z,938.47
2018-06-10T15:13:44.471Z,938.43
2018-06-10T15:14:52.460Z,938.41
2018-06-10T15:16:00.500Z,938.44
2018-06-10T15:17:08.584Z,938.38
2018-06-10T15:18:16.661Z,938.36
2018-06-10T15:19:24.815Z,938.31
2018-06-10T15:20:32.811Z,938.29
2018-06-10T15:21:40.879Z,938.29
2018-06-10T15:22:48.959Z,938.25
2018-06-10T15:23:57.022Z,938.22
2018-06-10T15:25:05.121Z,938.18
2018-06-10T15:26:13.171Z,938.18
2018-06-10T15:27:21.253Z,938.17
2018-06-10T15:28:29.326Z,938.14
2018-06-10T15:29:37.532Z,938.12
2018-06-10T15:30:45.908Z,938.15
2018-06-10T15:31:54.130Z,938.08
2018-06-10T15:33:02.201Z,938.09
2018-06-10T15:34:10.130Z,938.06
2018-06-10T15:35:17.755Z,937.96
2018-06-10T15:36:25.883Z,937.95
2018-06-10T15:37:33.886Z,937.92
2018-06-10T15:38:41.965Z,937.86
2018-06-10T15:39:50.058Z,937.89
2018-06-10T15:40:58.120Z,937.89
2018-06-10T15:42:06.238Z,937.90
2018-06-10T15:43:14.258Z,937.88
2018-06-10T15:44:22.339Z,937.90
2018-06-10T15:45:30.461Z,937.86
2018-06-10T15:46:38.483Z,937.87
2018-06-10T15:47:46.599Z,937.86
2018-06-10T15:48:54.625Z,937.92
2018-06-10T15:50:02.764Z,937.95
2018-06-10T15:51:10.780Z,937.93
2018-06-10T15:52:18.881Z,937.93
2018-06-10T15:54:37.629Z,937.84
2018-06-10T15:55:45.697Z,937.88
2018-06-10T15:56:54.047Z,937.89
2018-06-10T15:58:02.327Z,937.89
2018-06-10T15:59:09.895Z,937.90
2018-06-10T16:00:17.970Z,937.93
2018-06-10T16:01:26.169Z,937.91
2018-06-10T16:02:34.126Z,937.90
2018-06-10T16:03:42.221Z,937.89
2018-06-10T16:04:50.259Z,937.89
2018-06-10T16:05:58.340Z,937.92
2018-06-10T16:07:06.414Z,937.93
2018-06-10T16:08:14.472Z,937.96
2018-06-10T16:09:22.660Z,937.96
2018-06-10T16:10:30.655Z,937.96
2018-06-10T16:11:38.722Z,937.99
2018-06-10T16:12:46.766Z,937.96
2018-06-10T16:13:54.832Z,937.94
2018-06-10T16:15:02.979Z,937.93
2018-06-10T16:16:12.227Z,937.88
2018-06-10T16:17:19.122Z,937.89
2018-06-10T16:18:27.129Z,937.94
2018-06-10T16:19:35.189Z,937.85
2018-06-10T16:20:43.409Z,937.87
2018-06-10T16:21:51.362Z,937.87
2018-06-10T16:22:59.434Z,937.88
2018-06-10T16:24:07.506Z,937.82
2018-06-10T16:25:15.574Z,937.82
2018-06-10T16:26:23.790Z,937.82
2018-06-10T16:27:31.791Z,937.79
2018-06-10T16:28:39.798Z,937.76
2018-06-10T16:29:47.873Z,937.77
2018-06-10T16:30:55.938Z,937.85
2018-06-10T16:32:04.120Z,937.79
2018-06-10T16:33:12.092Z,937.79
2018-06-10T16:34:20.166Z,937.73
2018-06-10T16:35:28.241Z,937.72
2018-06-10T16:36:36.312Z,937.72
2018-06-10T16:37:44.528Z,937.68
2018-06-10T16:38:52.690Z,937.72
2018-06-10T16:40:00.527Z,937.72
2018-06-10T16:41:08.601Z,937.76
2018-06-10T16:42:16.791Z,937.74
2018-06-10T16:43:24.722Z,937.76
2018-06-10T16:44:32.815Z,937.78
2018-06-10T16:45:40.887Z,937.78
2018-06-10T16:46:48.976Z,937.81
2018-06-10T16:47:57.414Z,937.81
2018-06-10T16:49:05.119Z,937.80
2018-06-10T16:50:13.199Z,937.77
2018-06-10T16:51:21.265Z,937.81
2018-06-10T16:52:29.333Z,937.86
2018-06-10T16:53:37.453Z,937.84
2018-06-10T16:54:45.493Z,937.88
2018-06-10T16:55:53.562Z,937.82
2018-06-10T16:57:01.624Z,937.85
2018-06-10T16:58:09.695Z,937.81
2018-06-10T16:59:17.886Z,937.80
2018-06-10T17:00:25.834Z,937.81
2018-06-10T17:01:33.918Z,937.82
2018-06-10T17:02:42.125Z,937.84
2018-06-10T17:03:50.071Z,937.79
2018-06-10T17:04:58.182Z,937.81
2018-06-10T17:06:06.206Z,937.79
2018-06-10T17:07:14.276Z,937.76
2018-06-10T17:08:22.336Z,937.80
2018-06-10T17:09:30.427Z,937.77
2018-06-10T17:10:38.591Z,937.74
2018-06-10T17:11:46.563Z,937.75
2018-06-10T17:12:54.618Z,937.74
2018-06-10T17:14:02.794Z,937.75
2018-06-10T17:15:10.787Z,937.74
2018-06-10T17:16:18.964Z,937.72
2018-06-10T17:17:26.924Z,937.72
2018-06-10T17:21:08.442Z,937.66
2018-06-10T17:22:16.427Z,937.66
2018-06-10T17:23:24.435Z,937.59
2018-06-10T17:24:33.208Z,937.64
2018-06-10T17:25:40.623Z,937.63
2018-06-10T17:26:48.710Z,937.61
2018-06-10T17:27:56.799Z,937.59
2018-06-10T17:29:04.785Z,937.56
2018-06-10T17:30:12.910Z,937.56
2018-06-10T17:31:20.956Z,937.61
2018-06-10T17:32:29.077Z,937.63
2018-06-10T17:33:37.103Z,937.65
2018-06-10T17:34:45.257Z,937.63
2018-06-10T17:35:53.247Z,937.67
2018-06-10T17:37:01.437Z,937.70
2018-06-10T17:38:09.376Z,937.68
2018-06-10T17:39:17.460Z,937.67
2018-06-10T17:40:25.522Z,937.70
2018-06-10T17:41:33.589Z,937.70
2018-06-10T17:42:41.719Z,937.70
2018-06-10T17:43:49.740Z,937.73
2018-06-10T17:44:57.807Z,937.72
2018-06-10T17:46:05.883Z,937.72
2018-06-10T17:47:14.134Z,937.68
2018-06-10T17:48:22.076Z,937.71
2018-06-10T17:49:30.100Z,937.67
2018-06-10T17:50:38.183Z,937.71
2018-06-10T17:51:46.243Z,937.71
2018-06-10T17:52:54.353Z,937.74
2018-06-10T17:54:02.495Z,937.73
2018-06-10T17:55:10.457Z,937.69
2018-06-10T17:56:18.515Z,937.74
2018-06-10T17:57:26.613Z,937.72
2018-06-10T17:58:34.640Z,937.73
2018-06-10T17:59:42.853Z,937.71
2018-06-10T18:00:50.803Z,937.71
2018-06-10T18:01:58.873Z,937.72
2018-06-10T18:03:06.959Z,937.70
2018-06-10T18:04:15.008Z,937.75
2018-06-10T18:05:23.129Z,937.77
2018-06-10T18:06:31.168Z,937.75
2018-06-10T18:07:39.270Z,937.77
2018-06-10T18:08:47.295Z,937.76
2018-06-10T18:09:55.394Z,937.77
2018-06-10T18:11:03.490Z,937.77
2018-06-10T18:12:11.518Z,937.78
2018-06-10T18:13:19.581Z,937.78
2018-06-10T18:14:27.658Z,937.72
2018-06-10T18:15:35.733Z,937.71
2018-06-10T18:16:43.919Z,937.73
2018-06-10T18:17:51.868Z,937.71
2018-06-10T18:18:59.931Z,937.69
2018-06-10T18:20:08.026Z,937.68
2018-06-10T18:21:16.152Z,937.66
2018-06-10T18:22:24.266Z,937.63
2018-06-10T18:23:32.221Z,937.67
2018-06-10T18:24:40.302Z,937.61
2018-06-10T18:25:48.366Z,937.63
2018-06-10T18:26:56.432Z,937.58
2018-06-10T18:28:04.486Z,937.62
2018-06-10T18:29:12.578Z,937.61
2018-06-10T18:30:20.665Z,937.64
2018-06-10T18:31:28.708Z,937.62
2018-06-10T18:32:36.826Z,937.60
2018-06-10T18:33:44.829Z,937.61
2018-06-10T18:34:52.909Z,937.59
2018-06-10T18:36:01.003Z,937.59
2018-06-10T18:37:09.186Z,937.57
2018-06-10T18:38:17.248Z,937.57
2018-06-10T18:39:25.191Z,937.55
2018-06-10T18:40:33.286Z,937.54
2018-06-10T18:41:41.354Z,937.57
2018-06-10T18:42:49.539Z,937.55
2018-06-10T18:43:57.494Z,937.60
2018-06-10T18:45:05.547Z,937.57
2018-06-10T18:46:13.626Z,937.62
2018-06-10T18:47:21.698Z,937.60
2018-06-10T18:48:29.881Z,937.64
2018-06-10T18:49:39.037Z,937.70
2018-06-10T18:50:45.911Z,937.68
2018-06-10T18:51:53.974Z,937.68
2018-06-10T18:53:02.090Z,937.67
2018-06-10T18:54:10.233Z,937.71
2018-06-10T18:55:18.188Z,937.70
2018-06-10T18:56:26.260Z,937.76
2018-06-10T18:57:34.329Z,937.74
2018-06-10T18:58:42.412Z,937.77
2018-06-10T18:59:50.508Z,937.77
2018-06-10T19:00:58.550Z,937.78
2018-06-10T19:02:06.609Z,937.82
2018-06-10T19:03:14.677Z,937.79
2018-06-10T19:04:22.753Z,937.77
2018-06-10T19:05:30.923Z,937.82
2018-06-10T19:06:38.895Z,937.78
2018-06-10T19:07:46.966Z,937.78
2018-06-10T19:08:55.006Z,937.84
2018-06-10T19:10:03.150Z,937.86
2018-06-10T19:11:11.277Z,937.92
2018-06-10T19:12:19.240Z,937.91
2018-06-10T19:13:27.309Z,937.90
2018-06-10T19:14:35.361Z,937.92
2018-06-10T19:15:43.496Z,937.94
2018-06-10T19:16:51.645Z,937.92
2018-06-10T19:17:59.588Z,937.92
2018-06-10T19:19:07.664Z,937.88
2018-06-10T19:20:15.736Z,937.88
2018-06-10T19:21:23.789Z,937.85
2018-06-10T19:22:31.897Z,937.82
2018-06-10T19:23:39.938Z,937.81
2018-06-10T19:24:48.018Z,937.85
2018-06-10T19:25:56.113Z,937.84
2018-06-10T19:27:04.136Z,937.84
2018-06-10T19:28:12.210Z,937.90
2018-06-10T19:29:20.296Z,937.89
2018-06-10T19:30:28.345Z,937.91
2018-06-10T19:31:36.417Z,937.95
2018-06-10T19:32:44.569Z,937.96
2018-06-10T19:33:52.590Z,937.96
2018-06-10T19:35:00.612Z,937.97
2018-06-10T19:36:08.679Z,937.97